Página principal
METAR-TAF:

METAR-TAF

Aeroportos :

Salamanca, Espanha

latitude: 40-57N, longitude: 005-30W, altura: 793 m

Observação actual do tempo

O boletim foi feito há 28 minutos, às 16:30 UTC
Vento 2 kt com direcção variável
Temperatura 35°C
Humidade 23%
Pressão 1011 hPa
Visibilidade 10 km ou mais
sem nuvens abaixo de 1500 metros e sem cumulonimbus

METAR: LESA 251630Z VRB02KT CAVOK 35/11 Q1011

Hora: 18:58 (16:58 UTC)

Previsão

O boletim foi feito há 2 horas e 58 minutos, às 14:00 UTC
Previsão válida de 25 às 15 UTC a 26 às 15 UTC
Vento 4 kt com direcção variável
Visibilidade 10 km ou mais
sem nuvens abaixo de 1500 metros e sem cumulonimbus
Temporariamente
de 25 às 15 UTC a 25 às 22 UTC
Vento 7 kt de nor-noroeste
Temporariamente
de 25 às 22 UTC a 26 às 02 UTC
Vento 10 kt de nor-nordeste

TAF: LESA 251400Z 2515/2615 VRB04KT CAVOK TX36/2515Z TN16/2605Z TEMPO 2515/2522 34007KT TEMPO 2522/2602 03010KT

Observações e previsões do tempo de mais de 4000 aeroportos (mensagens METAR e TAF).

As estações disponíveis são os pontos amarelos e vermelhos sobre o mapa.

Mova o rato sobre o mapa para ver o nome da estação.

Depois clique no ponto para visualizar as observações e previsões meteorológicas.

Para alterar o mapa : clique nos botões verdes com uma cruz preta para aumentar o zoom; no botão verde com uma pitada de zoom; ou nas setas verdes para mapas adjacentes.


METAR-TAF: